New Market, Iowa
Current Conditions -  °F | °C
As of 3:35 PM on Monday 24 Nov 2014 (Local Time) from KICL Reporting Station
Overcast Overcast  
Wind Chill: 25°   Ceiling: 3800
Heat Index: 34°   Visibility: 10mi
Dew Point: 21°   Wind: 13mph
Humidity: 60%   Direction: 320°NW
Pressure: 29.85"   Gusts: 20mph
Location:  40.73°N, 94.9°W
Report Text: KICL 242135Z AUTO 32011G17KT 10SM OVC038 01/M06 A2985 RMK AO2
Loading
Personal Weather Stations






























Interactive Weather Map New forecast layout! Learn more

10-Day Weather Forecast

Advertisements
Track Severe Weather on mobile